createdAt,value
2023-03-20T00:02:27.119Z,12.85
2023-03-20T00:12:31.453Z,6.82
2023-03-20T00:17:33.486Z,10.30
2023-03-20T00:22:35.133Z,7.00
2023-03-20T00:27:37.059Z,7.23
2023-03-20T00:32:38.726Z,19.65
2023-03-20T00:37:40.457Z,38.15
2023-03-20T00:42:44.940Z,42.38
2023-03-20T00:47:51.465Z,6.75
2023-03-20T00:52:53.802Z,11.77
2023-03-20T00:57:56.987Z,9.27
2023-03-20T01:02:59.044Z,13.00
2023-03-20T01:08:01.223Z,6.80
2023-03-20T01:13:03.767Z,9.35
2023-03-20T01:18:06.136Z,9.00
2023-03-20T01:23:08.117Z,10.17
2023-03-20T01:28:18.518Z,11.00
2023-03-20T01:33:23.247Z,18.25
2023-03-20T01:38:29.230Z,16.48
2023-03-20T01:43:34.058Z,18.60
2023-03-20T01:48:57.986Z,13.63
2023-03-20T01:54:10.777Z,14.18
2023-03-20T01:59:51.190Z,16.55
2023-03-20T02:04:58.168Z,15.95
2023-03-20T02:10:00.996Z,13.13
2023-03-20T02:15:17.181Z,14.57
2023-03-20T02:20:44.619Z,15.23
2023-03-20T02:26:08.351Z,14.75
2023-03-20T02:31:22.883Z,14.60
2023-03-20T02:36:46.617Z,14.25
2023-03-20T02:42:03.680Z,11.68
2023-03-20T02:47:13.372Z,9.77
2023-03-20T02:52:22.591Z,13.43
2023-03-20T02:57:42.852Z,10.80
2023-03-20T03:02:59.922Z,12.45
2023-03-20T03:08:04.734Z,12.85
2023-03-20T03:13:15.780Z,14.07
2023-03-20T03:18:24.843Z,12.15
2023-03-20T03:23:35.420Z,12.98
2023-03-20T03:28:46.039Z,12.52
2023-03-20T03:33:55.513Z,12.63
2023-03-20T03:39:06.302Z,13.15
2023-03-20T03:44:18.176Z,11.95
2023-03-20T03:49:28.931Z,13.43
2023-03-20T03:54:43.449Z,12.23
2023-03-20T04:00:27.275Z,12.43
2023-03-20T04:05:31.763Z,13.93
2023-03-20T04:10:33.838Z,13.20
2023-03-20T04:15:35.807Z,11.30
2023-03-20T04:20:39.217Z,13.77
2023-03-20T04:25:41.264Z,12.57
2023-03-20T04:30:44.260Z,49.13
2023-03-20T04:35:52.742Z,13.43
2023-03-20T04:40:55.293Z,12.38
2023-03-20T04:45:57.819Z,11.30
2023-03-20T04:50:59.884Z,10.48
2023-03-20T04:56:14.373Z,13.95
2023-03-20T05:01:16.628Z,10.07
2023-03-20T05:06:18.589Z,10.33
2023-03-20T05:11:20.958Z,11.03
2023-03-20T05:16:47.334Z,12.43
2023-03-20T05:22:11.130Z,10.10
2023-03-20T05:27:31.389Z,11.20
2023-03-20T05:32:56.819Z,12.05
2023-03-20T05:38:01.440Z,13.68
2023-03-20T05:43:16.916Z,12.00
2023-03-20T05:48:38.981Z,11.98
2023-03-20T05:54:03.425Z,12.82
2023-03-20T05:59:31.304Z,14.98
2023-03-20T06:05:05.929Z,19.08
2023-03-20T06:10:17.277Z,13.60
2023-03-20T06:15:19.807Z,15.40
2023-03-20T06:20:28.971Z,16.30
2023-03-20T06:25:30.926Z,15.13
2023-03-20T06:30:33.485Z,16.38
2023-03-20T06:35:36.382Z,15.38
2023-03-20T06:40:38.787Z,13.13
2023-03-20T06:45:41.000Z,14.73
2023-03-20T06:50:53.053Z,13.30
2023-03-20T06:55:57.343Z,18.63
2023-03-20T07:00:59.430Z,15.20
2023-03-20T07:06:01.795Z,18.43
2023-03-20T07:11:05.202Z,17.15
2023-03-20T07:16:08.241Z,14.55
2023-03-20T07:21:19.857Z,16.65
2023-03-20T07:26:22.125Z,14.93
2023-03-20T07:31:26.848Z,14.63
2023-03-20T07:36:38.005Z,11.32
2023-03-20T07:41:40.159Z,11.90
2023-03-20T07:46:45.970Z,12.95
2023-03-20T07:51:49.265Z,12.52
2023-03-20T07:56:51.551Z,10.88
2023-03-20T08:01:53.257Z,9.83
2023-03-20T08:06:55.043Z,12.15
2023-03-20T08:11:56.749Z,10.60
2023-03-20T08:17:12.828Z,12.27
2023-03-20T08:22:16.614Z,11.82
2023-03-20T08:27:18.366Z,11.20
2023-03-20T08:32:20.094Z,12.90
2023-03-20T08:37:22.228Z,12.20
2023-03-20T08:42:23.946Z,12.03
2023-03-20T08:47:27.020Z,13.43
2023-03-20T08:52:28.792Z,10.77
2023-03-20T08:57:30.853Z,10.05
2023-03-20T09:02:33.312Z,8.80
2023-03-20T09:07:35.592Z,8.45
2023-03-20T09:12:37.788Z,7.10
2023-03-20T09:17:39.676Z,7.05
2023-03-20T09:22:42.413Z,6.82
2023-03-20T09:27:44.181Z,6.45
2023-03-20T09:32:46.178Z,6.47
2023-03-20T09:37:48.358Z,5.63
2023-03-20T09:42:59.300Z,4.85
2023-03-20T09:48:09.618Z,5.93
2023-03-20T09:53:20.473Z,6.35
2023-03-20T09:58:30.140Z,5.60
2023-03-20T10:03:58.373Z,4.28
2023-03-20T10:09:00.278Z,6.97
2023-03-20T10:14:24.299Z,6.70
2023-03-20T10:19:36.674Z,3.30
2023-03-20T10:24:52.233Z,4.90
2023-03-20T10:30:03.566Z,4.00
2023-03-20T10:35:34.648Z,3.45
2023-03-20T10:40:41.543Z,5.07
2023-03-20T10:45:48.319Z,3.88
2023-03-20T10:50:53.845Z,4.20
2023-03-20T10:55:59.463Z,3.80
2023-03-20T11:01:02.946Z,4.28
2023-03-20T11:06:28.308Z,3.80
2023-03-20T11:11:34.314Z,4.28
2023-03-20T11:16:40.731Z,3.63
2023-03-20T11:21:51.788Z,3.40
2023-03-20T11:26:55.482Z,4.45
2023-03-20T11:32:06.730Z,4.22
2023-03-20T11:37:22.835Z,3.20
2023-03-20T11:42:28.409Z,3.33
2023-03-20T11:47:34.036Z,3.95
2023-03-20T11:52:38.968Z,3.63
2023-03-20T11:57:42.468Z,5.20
2023-03-20T12:02:44.865Z,3.78
2023-03-20T12:07:49.778Z,5.55
2023-03-20T12:12:59.146Z,3.22
2023-03-20T12:18:15.654Z,3.38
2023-03-20T12:23:29.890Z,3.22
2023-03-20T12:28:47.694Z,3.13
2023-03-20T12:34:01.338Z,2.53
2023-03-20T12:39:06.615Z,2.78
2023-03-20T12:44:21.789Z,5.43
2023-03-20T12:49:33.641Z,4.18
2023-03-20T12:55:00.221Z,3.10
2023-03-20T13:00:17.235Z,4.50
2023-03-20T13:05:56.827Z,3.08
2023-03-20T13:11:12.934Z,2.97
2023-03-20T13:16:41.627Z,4.07
2023-03-20T13:21:55.367Z,3.88
2023-03-20T13:27:21.158Z,3.42
2023-03-20T13:32:33.839Z,2.63
2023-03-20T13:37:41.101Z,2.60
2023-03-20T13:42:52.231Z,2.10
2023-03-20T13:47:55.534Z,2.35
2023-03-20T13:53:24.359Z,3.05
2023-03-20T13:59:07.487Z,2.13
2023-03-20T14:04:16.109Z,1.85
2023-03-20T14:09:30.501Z,1.90
2023-03-20T14:14:51.920Z,2.67
2023-03-20T14:19:55.178Z,2.92
2023-03-20T14:25:06.677Z,3.30
2023-03-20T14:30:29.916Z,2.85
2023-03-20T14:35:37.098Z,2.85
2023-03-20T14:40:57.129Z,5.72
2023-03-20T14:46:15.775Z,3.05
2023-03-20T14:51:37.600Z,2.83
2023-03-20T14:56:39.816Z,3.40
2023-03-20T15:01:48.054Z,2.80
2023-03-20T15:07:14.041Z,3.13
2023-03-20T15:12:22.521Z,3.95
2023-03-20T15:17:41.422Z,4.32
2023-03-20T15:23:01.312Z,3.28
2023-03-20T15:28:08.236Z,8.23
2023-03-20T15:33:41.741Z,2.97
2023-03-20T15:38:44.551Z,4.10
2023-03-20T15:48:51.293Z,14.98
2023-03-20T15:53:53.110Z,5.15
2023-03-20T15:58:56.731Z,4.32
2023-03-20T16:03:59.809Z,6.90
2023-03-20T16:09:07.949Z,2.80
2023-03-20T16:14:14.899Z,3.47
2023-03-20T16:19:17.752Z,4.18
2023-03-20T16:24:25.954Z,3.10
2023-03-20T16:29:29.164Z,4.35
2023-03-20T16:34:34.565Z,3.75
2023-03-20T16:39:36.230Z,5.18
2023-03-20T16:44:40.291Z,3.50
2023-03-20T16:49:54.203Z,4.03
2023-03-20T16:55:00.580Z,5.28
2023-03-20T17:00:27.856Z,4.50
2023-03-20T17:05:42.498Z,4.93
2023-03-20T17:10:56.157Z,4.28
2023-03-20T17:15:59.177Z,4.18
2023-03-20T17:21:00.828Z,5.63
2023-03-20T17:26:02.513Z,8.30
2023-03-20T17:31:05.438Z,10.57
2023-03-20T17:36:17.127Z,9.57
2023-03-20T17:41:20.710Z,10.68
2023-03-20T17:46:26.592Z,9.30
2023-03-20T17:51:29.038Z,7.38
2023-03-20T17:56:32.634Z,6.45
2023-03-20T18:01:34.351Z,3.05
2023-03-20T18:06:36.967Z,4.68
2023-03-20T18:11:38.717Z,6.60
2023-03-20T18:16:40.417Z,7.55
2023-03-20T18:21:42.093Z,4.97
2023-03-20T18:26:45.824Z,7.20
2023-03-20T18:31:49.135Z,5.63
2023-03-20T18:41:53.633Z,4.77
2023-03-20T18:46:55.325Z,3.78
2023-03-20T18:51:57.068Z,3.95
2023-03-20T18:57:00.726Z,6.93
2023-03-20T19:02:02.468Z,6.38
2023-03-20T19:07:04.133Z,6.10
2023-03-20T19:12:06.291Z,9.88
2023-03-20T19:17:10.958Z,4.87
2023-03-20T19:22:26.589Z,4.00
2023-03-20T19:27:30.721Z,6.28
2023-03-20T19:32:32.541Z,3.97
2023-03-20T19:37:34.171Z,3.83
2023-03-20T19:42:59.837Z,3.95
2023-03-20T19:47:59.008Z,5.73
2023-03-20T19:53:11.528Z,7.05
2023-03-20T19:58:14.138Z,8.23
2023-03-20T20:03:19.189Z,5.65
2023-03-20T20:08:39.457Z,5.70
2023-03-20T20:14:04.270Z,4.45
2023-03-20T20:19:05.819Z,4.43
2023-03-20T20:24:07.729Z,6.43
2023-03-20T20:29:09.750Z,6.65
2023-03-20T20:39:33.371Z,6.82
2023-03-20T20:44:35.275Z,7.10
2023-03-20T20:49:37.045Z,6.22
2023-03-20T20:54:41.912Z,7.63
2023-03-20T20:59:43.606Z,4.70
2023-03-20T21:04:45.396Z,4.45
2023-03-20T21:09:47.678Z,5.47
2023-03-20T21:14:50.734Z,4.25
2023-03-20T21:25:11.034Z,13.93
2023-03-20T21:30:15.718Z,7.15
2023-03-20T21:35:17.464Z,5.03
2023-03-20T21:40:19.451Z,6.90
2023-03-20T21:51:28.537Z,4.03
2023-03-20T21:56:45.667Z,4.10
2023-03-20T22:07:35.952Z,4.68
2023-03-20T22:12:55.968Z,5.07
2023-03-20T22:18:12.206Z,4.45
2023-03-20T22:29:20.805Z,5.63
2023-03-20T22:34:25.866Z,6.23
2023-03-20T22:49:45.524Z,7.15
2023-03-20T22:54:47.207Z,6.30
2023-03-20T22:59:49.046Z,7.15
2023-03-20T23:04:52.429Z,7.40
2023-03-20T23:09:54.405Z,9.73
2023-03-20T23:14:56.086Z,9.27
2023-03-20T23:20:10.414Z,8.45
2023-03-20T23:25:23.572Z,8.45
2023-03-20T23:30:37.978Z,6.75
2023-03-20T23:35:46.326Z,7.15
2023-03-20T23:40:50.263Z,8.93
2023-03-20T23:45:51.955Z,10.13
2023-03-20T23:50:53.924Z,7.80
2023-03-20T23:55:57.122Z,7.65
